createdAt,value
2023-05-05T00:02:50.612Z,11.04
2023-05-05T00:07:54.233Z,10.97
2023-05-05T00:12:57.221Z,10.86
2023-05-05T00:18:00.257Z,10.79
2023-05-05T00:23:04.166Z,10.74
2023-05-05T00:28:07.116Z,10.69
2023-05-05T00:33:10.193Z,10.65
2023-05-05T00:38:13.171Z,10.58
2023-05-05T00:43:16.203Z,10.56
2023-05-05T00:48:19.624Z,10.54
2023-05-05T00:53:23.276Z,10.49
2023-05-05T00:58:26.095Z,10.47
2023-05-05T01:03:29.131Z,10.54
2023-05-05T01:09:20.147Z,10.53
2023-05-05T01:14:53.068Z,10.53
2023-05-05T01:20:21.671Z,10.57
2023-05-05T01:26:12.450Z,10.61
2023-05-05T01:31:32.047Z,10.62
2023-05-05T01:36:42.372Z,10.60
2023-05-05T01:41:54.339Z,10.65
2023-05-05T01:46:59.656Z,10.66
2023-05-05T01:52:05.107Z,10.69
2023-05-05T01:57:10.185Z,10.73
2023-05-05T02:02:15.755Z,10.84
2023-05-05T02:07:21.177Z,10.91
2023-05-05T02:12:24.170Z,10.96
2023-05-05T02:17:27.829Z,10.97
2023-05-05T02:22:31.724Z,10.93
2023-05-05T02:27:36.218Z,10.92
2023-05-05T02:32:53.961Z,10.90
2023-05-05T02:38:02.877Z,10.83
2023-05-05T02:43:10.031Z,10.76
2023-05-05T02:48:13.299Z,10.72
2023-05-05T02:53:16.648Z,10.66
2023-05-05T02:58:33.355Z,10.62
2023-05-05T03:03:47.568Z,10.58
2023-05-05T03:08:56.905Z,10.51
2023-05-05T03:14:13.371Z,10.54
2023-05-05T03:19:20.406Z,10.56
2023-05-05T03:24:23.471Z,10.61
2023-05-05T03:29:26.835Z,10.65
2023-05-05T03:34:29.804Z,10.71
2023-05-05T03:39:32.768Z,10.75
2023-05-05T03:44:35.704Z,10.84
2023-05-05T03:49:38.674Z,10.88
2023-05-05T03:54:42.586Z,10.88
2023-05-05T03:59:45.731Z,10.78
2023-05-05T04:04:48.735Z,10.64
2023-05-05T04:09:51.868Z,10.52
2023-05-05T04:14:54.892Z,10.47
2023-05-05T04:19:57.861Z,10.45
2023-05-05T04:25:01.344Z,10.50
2023-05-05T04:30:05.150Z,10.47
2023-05-05T04:35:08.600Z,10.45
2023-05-05T04:40:12.095Z,10.45
2023-05-05T04:45:15.322Z,10.51
2023-05-05T04:50:18.332Z,10.56
2023-05-05T04:55:21.479Z,10.62
2023-05-05T05:00:24.587Z,10.70
2023-05-05T05:05:27.561Z,10.82
2023-05-05T05:10:30.559Z,10.89
2023-05-05T05:15:33.586Z,11.00
2023-05-05T05:20:36.564Z,11.12
2023-05-05T05:25:39.553Z,11.20
2023-05-05T05:30:42.519Z,11.34
2023-05-05T05:35:45.746Z,11.48
2023-05-05T05:40:48.673Z,11.67
2023-05-05T05:45:52.104Z,12.07
2023-05-05T05:50:56.466Z,12.41
2023-05-05T05:55:59.464Z,12.76
2023-05-05T06:01:04.129Z,13.08
2023-05-05T06:06:07.698Z,13.33
2023-05-05T06:11:10.843Z,13.54
2023-05-05T06:16:13.816Z,13.82
2023-05-05T06:21:16.851Z,14.05
2023-05-05T06:26:19.875Z,14.25
2023-05-05T06:31:22.961Z,14.46
2023-05-05T06:36:26.372Z,14.63
2023-05-05T06:41:29.302Z,14.74
2023-05-05T06:46:32.288Z,14.86
2023-05-05T06:51:35.626Z,15.00
2023-05-05T06:56:38.587Z,15.15
2023-05-05T07:01:41.646Z,15.28
2023-05-05T07:06:44.631Z,15.44
2023-05-05T07:11:47.599Z,15.59
2023-05-05T07:16:50.598Z,15.72
2023-05-05T07:21:53.601Z,15.85
2023-05-05T07:26:58.145Z,16.01
2023-05-05T07:32:01.122Z,16.13
2023-05-05T07:37:05.327Z,16.22
2023-05-05T07:42:08.479Z,16.28
2023-05-05T07:47:11.506Z,16.35
2023-05-05T07:52:14.491Z,16.42
2023-05-05T07:57:17.531Z,16.51
2023-05-05T08:02:23.046Z,16.52
2023-05-05T08:07:26.098Z,16.52
2023-05-05T08:12:32.165Z,16.53
2023-05-05T08:17:49.786Z,16.55
2023-05-05T08:22:52.726Z,16.57
2023-05-05T08:27:55.782Z,16.57
2023-05-05T08:32:59.436Z,16.49
2023-05-05T08:38:02.472Z,16.48
2023-05-05T08:43:06.012Z,16.45
2023-05-05T08:48:10.282Z,16.46
2023-05-05T08:53:17.839Z,16.48
2023-05-05T08:58:26.981Z,16.53
2023-05-05T09:03:32.326Z,16.59
2023-05-05T09:08:37.436Z,16.66
2023-05-05T09:19:05.097Z,16.79
2023-05-05T09:24:13.446Z,16.84
2023-05-05T09:29:21.387Z,16.87
2023-05-05T09:34:24.454Z,16.92
2023-05-05T09:39:27.533Z,16.98
2023-05-05T09:44:36.420Z,17.01
2023-05-05T09:49:39.513Z,17.05
2023-05-05T09:54:43.795Z,17.12
2023-05-05T09:59:58.274Z,17.21
2023-05-05T10:05:18.322Z,17.33
2023-05-05T10:10:21.566Z,17.44
2023-05-05T10:15:24.675Z,17.49
2023-05-05T10:20:27.990Z,17.54
2023-05-05T10:25:38.493Z,17.57
2023-05-05T10:30:46.419Z,17.65
2023-05-05T10:35:53.624Z,17.70
2023-05-05T10:40:59.277Z,17.75
2023-05-05T10:46:02.794Z,17.79
2023-05-05T10:51:31.119Z,17.80
2023-05-05T10:56:43.016Z,17.89
2023-05-05T11:01:46.051Z,17.98
2023-05-05T11:07:14.743Z,17.98
2023-05-05T11:12:18.203Z,17.98
2023-05-05T11:17:47.781Z,17.95
2023-05-05T11:23:02.780Z,17.94
2023-05-05T11:28:25.663Z,18.00
2023-05-05T11:33:33.525Z,18.10
2023-05-05T11:38:36.438Z,18.23
2023-05-05T11:43:41.847Z,18.34
2023-05-05T11:48:46.479Z,18.42
2023-05-05T11:53:50.977Z,18.50
2023-05-05T11:59:11.295Z,18.52
2023-05-05T12:04:16.178Z,18.58
2023-05-05T12:09:21.588Z,18.56
2023-05-05T12:14:26.079Z,18.55
2023-05-05T12:19:33.156Z,18.38
2023-05-05T12:24:36.249Z,18.20
2023-05-05T12:29:39.425Z,17.95
2023-05-05T12:34:42.314Z,17.70
2023-05-05T12:39:45.666Z,17.52
2023-05-05T12:44:49.336Z,17.40
2023-05-05T12:49:52.950Z,17.33
2023-05-05T12:54:57.919Z,17.32
2023-05-05T13:00:13.622Z,17.35
2023-05-05T13:05:28.914Z,17.41
2023-05-05T13:10:31.922Z,17.49
2023-05-05T13:15:35.028Z,17.66
2023-05-05T13:20:37.878Z,17.78
2023-05-05T13:25:40.740Z,17.78
2023-05-05T13:30:43.551Z,17.76
2023-05-05T13:35:46.423Z,17.76
2023-05-05T13:40:49.327Z,17.69
2023-05-05T13:45:53.628Z,17.63
2023-05-05T13:50:56.680Z,17.55
2023-05-05T13:55:59.804Z,17.46
2023-05-05T14:01:03.358Z,17.42
2023-05-05T14:06:07.615Z,17.39
2023-05-05T14:11:10.795Z,17.34
2023-05-05T14:16:14.059Z,17.32
2023-05-05T14:21:17.049Z,17.40
2023-05-05T14:26:20.040Z,17.49
2023-05-05T14:31:23.170Z,17.49
2023-05-05T14:36:26.980Z,17.50
2023-05-05T14:41:29.953Z,17.44
2023-05-05T14:46:33.635Z,17.35
2023-05-05T14:51:36.560Z,17.30
2023-05-05T14:56:39.575Z,17.27
2023-05-05T15:01:42.612Z,17.28
2023-05-05T15:06:45.793Z,17.28
2023-05-05T15:11:48.681Z,17.31
2023-05-05T15:16:51.824Z,17.36
2023-05-05T15:21:55.570Z,17.37
2023-05-05T15:26:58.549Z,17.36
2023-05-05T15:32:01.562Z,17.33
2023-05-05T15:37:04.544Z,17.26
2023-05-05T15:42:07.583Z,17.17
2023-05-05T15:47:11.004Z,17.08
2023-05-05T15:52:14.128Z,17.00
2023-05-05T15:57:21.579Z,16.92
2023-05-05T16:02:25.070Z,16.88
2023-05-05T16:07:28.099Z,16.86
2023-05-05T16:12:31.258Z,16.87
2023-05-05T16:17:34.136Z,16.81
2023-05-05T16:22:37.075Z,16.68
2023-05-05T16:27:39.905Z,16.52
2023-05-05T16:32:43.116Z,16.30
2023-05-05T16:37:49.085Z,16.09
2023-05-05T16:42:52.021Z,15.91
2023-05-05T16:47:57.730Z,15.76
2023-05-05T16:53:00.821Z,15.63
2023-05-05T16:58:04.726Z,15.55
2023-05-05T17:03:07.657Z,15.45
2023-05-05T17:08:14.174Z,15.37
2023-05-05T17:13:17.277Z,15.30
2023-05-05T17:18:22.778Z,15.22
2023-05-05T17:23:25.752Z,15.13
2023-05-05T17:28:28.712Z,15.05
2023-05-05T17:33:31.682Z,14.98
2023-05-05T17:38:34.690Z,14.86
2023-05-05T17:43:37.682Z,14.69
2023-05-05T17:48:40.675Z,14.52
2023-05-05T17:53:43.704Z,14.38
2023-05-05T17:58:46.730Z,14.25
2023-05-05T18:03:50.261Z,14.14
2023-05-05T18:08:53.088Z,14.05
2023-05-05T18:13:56.333Z,14.00
2023-05-05T18:18:59.296Z,13.93
2023-05-05T18:24:15.721Z,13.88
2023-05-05T18:29:22.913Z,13.79
2023-05-05T18:34:26.364Z,13.68
2023-05-05T18:39:32.326Z,13.62
2023-05-05T18:44:35.752Z,13.55
2023-05-05T18:49:38.621Z,13.44
2023-05-05T18:54:41.560Z,13.32
2023-05-05T18:59:44.607Z,13.23
2023-05-05T19:04:47.661Z,13.16
2023-05-05T19:09:50.745Z,13.09
2023-05-05T19:14:53.730Z,13.03
2023-05-05T19:19:56.716Z,12.96
2023-05-05T19:24:59.708Z,12.88
2023-05-05T19:30:07.534Z,12.83
2023-05-05T19:35:11.900Z,12.71
2023-05-05T19:40:15.089Z,12.62
2023-05-05T19:45:18.225Z,12.60
2023-05-05T19:50:21.781Z,12.52
2023-05-05T19:55:24.605Z,12.44
2023-05-05T20:00:27.687Z,12.39
2023-05-05T20:05:30.950Z,12.31
2023-05-05T20:10:34.445Z,12.24
2023-05-05T20:15:37.313Z,12.20
2023-05-05T20:20:40.677Z,12.18
2023-05-05T20:25:43.641Z,12.14
2023-05-05T20:30:46.788Z,12.13
2023-05-05T20:35:49.780Z,12.09
2023-05-05T20:40:52.853Z,12.05
2023-05-05T20:45:55.837Z,12.01
2023-05-05T20:50:58.983Z,11.97
2023-05-05T20:56:02.038Z,11.91
2023-05-05T21:01:05.095Z,11.82
2023-05-05T21:06:08.084Z,11.80
2023-05-05T21:11:11.070Z,11.77
2023-05-05T21:16:14.186Z,11.68
2023-05-05T21:21:17.326Z,11.61
2023-05-05T21:26:21.062Z,11.54
2023-05-05T21:31:24.052Z,11.49
2023-05-05T21:36:27.478Z,11.44
2023-05-05T21:41:30.819Z,11.40
2023-05-05T21:46:33.960Z,11.38
2023-05-05T21:51:37.391Z,11.33
2023-05-05T21:56:40.370Z,11.27
2023-05-05T22:01:43.388Z,11.24
2023-05-05T22:06:46.376Z,11.19
2023-05-05T22:11:49.414Z,11.14
2023-05-05T22:16:52.660Z,11.12
2023-05-05T22:21:57.456Z,11.10
2023-05-05T22:27:00.472Z,11.07
2023-05-05T22:32:03.482Z,11.03
2023-05-05T22:37:06.476Z,11.04
2023-05-05T22:42:09.616Z,11.01
2023-05-05T22:47:13.389Z,10.94
2023-05-05T22:52:16.376Z,10.86
2023-05-05T22:57:19.410Z,10.77
2023-05-05T23:02:22.478Z,10.72
2023-05-05T23:07:25.583Z,10.68
2023-05-05T23:12:28.623Z,10.65
2023-05-05T23:17:31.628Z,10.64
2023-05-05T23:22:34.589Z,10.60
2023-05-05T23:27:40.037Z,10.52
2023-05-05T23:32:44.970Z,10.50
2023-05-05T23:37:48.033Z,10.46
2023-05-05T23:42:51.028Z,10.45
2023-05-05T23:47:54.248Z,10.49
2023-05-05T23:52:57.299Z,10.54
2023-05-05T23:58:00.268Z,10.53
